createdAt,value
2018-03-04T00:01:31.934Z,94.15
2018-03-04T00:03:59.381Z,94.00
2018-03-04T00:06:26.833Z,93.79
2018-03-04T00:08:54.305Z,93.57
2018-03-04T00:11:21.756Z,93.56
2018-03-04T00:13:49.449Z,93.87
2018-03-04T00:16:16.930Z,93.62
2018-03-04T00:18:44.385Z,93.56
2018-03-04T00:21:11.865Z,93.95
2018-03-04T00:23:39.313Z,94.04
2018-03-04T00:26:06.821Z,93.96
2018-03-04T00:28:34.274Z,93.92
2018-03-04T00:31:01.725Z,94.14
2018-03-04T00:33:29.194Z,94.19
2018-03-04T00:35:56.651Z,94.59
2018-03-04T00:38:24.134Z,94.60
2018-03-04T00:40:51.581Z,94.11
2018-03-04T00:43:19.034Z,94.26
2018-03-04T00:45:46.505Z,93.72
2018-03-04T00:48:13.962Z,93.96
2018-03-04T00:50:41.453Z,94.06
2018-03-04T00:53:08.915Z,93.25
2018-03-04T00:55:36.384Z,92.54
2018-03-04T00:58:03.856Z,92.71
2018-03-04T01:00:31.305Z,93.40
2018-03-04T01:02:58.809Z,93.32
2018-03-04T01:05:26.260Z,93.36
2018-03-04T01:07:53.713Z,93.75
2018-03-04T01:10:21.206Z,93.96
2018-03-04T01:12:48.665Z,94.01
2018-03-04T01:15:16.406Z,92.93
2018-03-04T01:17:43.873Z,92.53
2018-03-04T01:20:11.334Z,93.61
2018-03-04T01:22:38.830Z,93.92
2018-03-04T01:25:06.312Z,94.26
2018-03-04T01:27:33.924Z,94.61
2018-03-04T01:30:01.373Z,94.49
2018-03-04T01:32:28.822Z,94.62
2018-03-04T01:34:56.294Z,94.76
2018-03-04T01:37:23.754Z,94.83
2018-03-04T01:39:51.374Z,94.88
2018-03-04T01:42:18.825Z,93.93
2018-03-04T01:44:46.284Z,93.87
2018-03-04T01:47:13.762Z,93.77
2018-03-04T01:49:41.214Z,94.36
2018-03-04T01:52:08.838Z,94.84
2018-03-04T01:54:36.301Z,94.52
2018-03-04T01:57:03.753Z,94.33
2018-03-04T01:59:31.221Z,94.40
2018-03-04T02:01:58.700Z,94.21
2018-03-04T02:04:26.182Z,94.27
2018-03-04T02:06:53.633Z,94.19
2018-03-04T02:09:21.081Z,94.19
2018-03-04T02:11:48.553Z,94.04
2018-03-04T02:14:15.998Z,94.17
2018-03-04T02:16:43.488Z,94.33
2018-03-04T02:19:10.941Z,94.32
2018-03-04T02:21:38.389Z,94.25
2018-03-04T02:24:05.861Z,94.26
2018-03-04T02:26:33.333Z,94.26
2018-03-04T02:29:01.106Z,94.36
2018-03-04T02:31:28.551Z,94.05
2018-03-04T02:33:56.005Z,94.09
2018-03-04T02:36:23.481Z,94.26
2018-03-04T02:38:50.942Z,93.94
2018-03-04T02:41:18.640Z,94.09
2018-03-04T02:43:46.095Z,94.10
2018-03-04T02:46:13.550Z,94.11
2018-03-04T02:48:41.017Z,94.13
2018-03-04T02:51:08.506Z,94.30
2018-03-04T02:53:36.010Z,94.45
2018-03-04T02:56:03.457Z,94.22
2018-03-04T02:58:30.914Z,94.25
2018-03-04T03:00:58.384Z,95.18
2018-03-04T03:03:25.834Z,95.00
2018-03-04T03:05:53.336Z,94.88
2018-03-04T03:08:20.801Z,94.54
2018-03-04T03:10:48.249Z,94.80
2018-03-04T03:13:15.733Z,94.86
2018-03-04T03:15:43.189Z,94.49
2018-03-04T03:18:10.681Z,93.78
2018-03-04T03:20:38.158Z,94.27
2018-03-04T03:23:05.610Z,94.11
2018-03-04T03:25:33.081Z,94.36
2018-03-04T03:28:00.529Z,94.67
2018-03-04T03:30:27.997Z,94.64
2018-03-04T03:32:55.446Z,94.43
2018-03-04T03:35:22.926Z,94.43
2018-03-04T03:37:50.397Z,94.52
2018-03-04T03:40:17.853Z,94.72
2018-03-04T03:42:45.448Z,94.53
2018-03-04T03:45:12.901Z,94.40
2018-03-04T03:47:40.349Z,94.53
2018-03-04T03:50:07.852Z,94.96
2018-03-04T03:52:35.293Z,94.95
2018-03-04T03:55:03.006Z,94.78
2018-03-04T03:57:30.463Z,94.50
2018-03-04T03:59:57.909Z,94.53
2018-03-04T04:02:25.382Z,94.13
2018-03-04T04:04:52.834Z,94.46
2018-03-04T04:07:20.469Z,94.33
2018-03-04T04:09:47.916Z,94.47
2018-03-04T04:12:15.361Z,94.34
2018-03-04T04:14:42.866Z,94.47
2018-03-04T04:17:10.349Z,94.46
2018-03-04T04:19:38.329Z,94.19
2018-03-04T04:22:05.785Z,93.71
2018-03-04T04:24:33.237Z,93.12
2018-03-04T04:27:00.704Z,92.37
2018-03-04T04:29:28.154Z,92.16
2018-03-04T04:31:55.838Z,92.52
2018-03-04T04:34:23.317Z,93.06
2018-03-04T04:36:50.791Z,92.87
2018-03-04T04:39:18.331Z,92.99
2018-03-04T04:41:45.772Z,92.71
2018-03-04T04:44:13.422Z,92.05
2018-03-04T04:46:40.871Z,91.91
2018-03-04T04:49:08.334Z,91.90
2018-03-04T04:51:35.812Z,92.71
2018-03-04T04:54:03.258Z,93.54
2018-03-04T04:56:30.737Z,93.62
2018-03-04T04:58:58.189Z,93.98
2018-03-04T05:01:25.637Z,94.58
2018-03-04T05:03:53.110Z,94.48
2018-03-04T05:06:20.565Z,94.67
2018-03-04T05:08:48.525Z,94.83
2018-03-04T05:11:15.973Z,94.56
2018-03-04T05:13:43.438Z,94.29
2018-03-04T05:16:10.921Z,94.43
2018-03-04T05:18:38.373Z,94.80
2018-03-04T05:21:06.173Z,95.09
2018-03-04T05:23:33.634Z,95.73
2018-03-04T05:26:01.093Z,95.94
2018-03-04T05:28:28.561Z,95.68
2018-03-04T05:30:56.024Z,94.59
2018-03-04T05:33:23.494Z,95.02
2018-03-04T05:35:50.949Z,95.25
2018-03-04T05:38:18.432Z,95.38
2018-03-04T05:40:45.906Z,95.13
2018-03-04T05:43:13.369Z,94.97
2018-03-04T05:45:40.873Z,95.22
2018-03-04T05:48:08.313Z,95.55
2018-03-04T05:50:35.762Z,95.07
2018-03-04T05:53:03.229Z,94.54
2018-03-04T05:55:30.676Z,95.03
2018-03-04T05:57:58.313Z,95.24
2018-03-04T06:00:25.769Z,95.40
2018-03-04T06:02:53.218Z,95.50
2018-03-04T06:05:20.706Z,95.31
2018-03-04T06:07:48.161Z,95.49
2018-03-04T06:10:15.652Z,95.44
2018-03-04T06:12:43.101Z,95.13
2018-03-04T06:15:10.552Z,95.57
2018-03-04T06:17:38.020Z,95.82
2018-03-04T06:20:05.474Z,96.24
2018-03-04T06:22:33.089Z,96.19
2018-03-04T06:25:00.546Z,95.94
2018-03-04T06:27:28.002Z,96.22
2018-03-04T06:29:55.522Z,96.08
2018-03-04T06:32:22.947Z,96.74
2018-03-04T06:34:50.873Z,97.00
2018-03-04T06:37:18.325Z,97.79
2018-03-04T06:39:45.773Z,98.35
2018-03-04T06:42:13.253Z,98.80
2018-03-04T06:44:40.717Z,98.71
2018-03-04T06:47:08.322Z,99.29
2018-03-04T06:49:35.793Z,99.39
2018-03-04T06:52:03.239Z,99.82
2018-03-04T06:54:30.716Z,100.00
2018-03-04T06:56:58.169Z,100.00
2018-03-04T06:59:25.658Z,100.00
2018-03-04T07:01:53.114Z,100.00
2018-03-04T07:04:20.581Z,100.00
2018-03-04T07:06:48.063Z,100.00
2018-03-04T07:09:15.519Z,100.00
2018-03-04T07:11:43.005Z,100.00
2018-03-04T07:14:10.490Z,100.00
2018-03-04T07:16:37.961Z,99.80
2018-03-04T07:19:05.426Z,99.67
2018-03-04T07:21:32.885Z,99.85
2018-03-04T07:24:00.377Z,99.42
2018-03-04T07:26:27.838Z,98.86
2018-03-04T07:28:55.301Z,98.38
2018-03-04T07:31:22.789Z,98.25
2018-03-04T07:33:50.233Z,97.95
2018-03-04T07:36:17.714Z,98.15
2018-03-04T07:38:45.169Z,98.87
2018-03-04T07:41:12.640Z,99.12
2018-03-04T07:43:40.114Z,98.98
2018-03-04T07:46:07.576Z,99.39
2018-03-04T07:48:35.062Z,99.27
2018-03-04T07:51:02.521Z,99.27
2018-03-04T07:53:29.996Z,99.20
2018-03-04T07:55:57.465Z,99.34
2018-03-04T07:58:24.913Z,99.56
2018-03-04T08:00:52.402Z,99.69
2018-03-04T08:03:19.860Z,100.00
2018-03-04T08:05:47.320Z,100.00
2018-03-04T08:08:14.792Z,100.00
2018-03-04T08:10:42.245Z,100.00
2018-03-04T08:13:10.099Z,100.00
2018-03-04T08:15:37.550Z,100.00
2018-03-04T08:18:05.027Z,100.00
2018-03-04T08:20:32.509Z,100.00
2018-03-04T08:22:59.987Z,100.00
2018-03-04T08:25:33.351Z,100.00
2018-03-04T08:28:12.797Z,100.00
2018-03-04T08:30:40.574Z,100.00
2018-03-04T08:33:08.032Z,100.00
2018-03-04T08:35:35.493Z,100.00
2018-03-04T08:38:03.009Z,100.00
2018-03-04T08:40:30.459Z,100.00
2018-03-04T08:42:58.125Z,100.00
2018-03-04T08:45:25.601Z,100.00
2018-03-04T08:47:53.067Z,100.00
2018-03-04T08:50:20.545Z,99.71
2018-03-04T08:52:48.025Z,99.82
2018-03-04T08:55:15.712Z,99.67
2018-03-04T08:57:43.205Z,99.98
2018-03-04T09:00:10.692Z,99.84
2018-03-04T09:02:38.161Z,99.20
2018-03-04T09:05:05.611Z,98.63
2018-03-04T09:07:33.122Z,98.42
2018-03-04T09:10:00.591Z,98.25
2018-03-04T09:12:28.046Z,98.89
2018-03-04T09:14:55.521Z,99.75
2018-03-04T09:17:22.985Z,100.00
2018-03-04T09:19:51.321Z,100.00
2018-03-04T09:22:18.795Z,100.00
2018-03-04T09:24:46.240Z,99.13
2018-03-04T09:27:13.709Z,98.89
2018-03-04T09:29:41.221Z,100.00
2018-03-04T09:32:09.001Z,100.00
2018-03-04T09:34:36.454Z,100.00
2018-03-04T09:37:03.929Z,100.00
2018-03-04T09:39:31.418Z,99.31
2018-03-04T09:41:58.864Z,99.67
2018-03-04T09:44:26.357Z,99.31
2018-03-04T09:46:53.802Z,98.43
2018-03-04T09:49:21.525Z,97.93
2018-03-04T09:51:49.906Z,98.08
2018-03-04T09:54:17.365Z,97.88
2018-03-04T09:56:44.872Z,98.45
2018-03-04T09:59:12.325Z,98.51
2018-03-04T10:01:39.812Z,98.06
2018-03-04T10:04:07.286Z,97.14
2018-03-04T10:06:34.749Z,97.09
2018-03-04T10:09:02.377Z,97.10
2018-03-04T10:11:29.853Z,96.48
2018-03-04T10:13:57.304Z,96.98
2018-03-04T10:16:24.796Z,97.49
2018-03-04T10:18:52.265Z,96.99
2018-03-04T10:21:19.758Z,97.72
2018-03-04T10:23:47.225Z,97.47
2018-03-04T10:26:14.698Z,97.18
2018-03-04T10:28:42.185Z,97.36
2018-03-04T10:31:09.662Z,98.08
2018-03-04T10:33:37.429Z,99.20
2018-03-04T10:36:04.877Z,99.16
2018-03-04T10:38:32.337Z,98.93
2018-03-04T10:40:59.811Z,99.12
2018-03-04T10:43:27.279Z,98.82
2018-03-04T10:45:54.751Z,98.71
2018-03-04T10:48:22.423Z,98.57
2018-03-04T10:50:49.882Z,98.20
2018-03-04T10:53:17.366Z,98.39
2018-03-04T10:55:44.813Z,97.60
2018-03-04T10:58:12.297Z,97.46
2018-03-04T11:00:48.330Z,97.50
2018-03-04T11:03:15.897Z,97.17
2018-03-04T11:05:43.375Z,97.02
2018-03-04T11:08:10.835Z,97.73
2018-03-04T11:10:38.304Z,97.64
2018-03-04T11:13:05.781Z,96.75
2018-03-04T11:15:33.413Z,96.64
2018-03-04T11:18:00.873Z,96.26
2018-03-04T11:20:28.393Z,95.69
2018-03-04T11:22:55.857Z,95.46
2018-03-04T11:25:23.336Z,95.61
2018-03-04T11:27:50.937Z,95.43
2018-03-04T11:30:18.393Z,95.10
2018-03-04T11:32:45.841Z,95.01
2018-03-04T11:35:13.321Z,95.43
2018-03-04T11:37:40.773Z,95.38
2018-03-04T11:40:08.417Z,95.61
2018-03-04T11:42:35.865Z,96.03
2018-03-04T11:45:03.316Z,95.78
2018-03-04T11:47:30.841Z,95.35
2018-03-04T11:49:58.296Z,95.84
2018-03-04T11:52:26.069Z,95.61
2018-03-04T11:54:53.529Z,94.65
2018-03-04T11:57:20.994Z,95.41
2018-03-04T11:59:48.477Z,95.71
2018-03-04T12:02:15.930Z,95.47
2018-03-04T12:04:43.624Z,95.83
2018-03-04T12:07:11.087Z,94.95
2018-03-04T12:09:38.555Z,94.44
2018-03-04T12:12:06.026Z,93.72
2018-03-04T12:14:33.500Z,94.22
2018-03-04T12:17:01.205Z,93.48
2018-03-04T12:19:28.682Z,93.98
2018-03-04T12:21:56.135Z,93.75
2018-03-04T12:24:23.634Z,92.61
2018-03-04T12:26:51.085Z,92.50
2018-03-04T12:29:18.726Z,93.04
2018-03-04T12:31:46.173Z,92.65
2018-03-04T12:34:13.618Z,91.71
2018-03-04T12:36:41.145Z,92.75
2018-03-04T12:39:08.553Z,92.01
2018-03-04T12:41:36.041Z,92.05
2018-03-04T12:44:03.489Z,92.55
2018-03-04T12:46:30.938Z,91.70
2018-03-04T12:48:58.451Z,91.27
2018-03-04T12:51:25.902Z,90.63
2018-03-04T12:53:53.384Z,90.21
2018-03-04T12:56:20.850Z,89.58
2018-03-04T12:58:48.312Z,89.98
2018-03-04T13:01:15.844Z,90.11
2018-03-04T13:03:43.281Z,89.46
2018-03-04T13:06:10.850Z,89.59
2018-03-04T13:08:38.325Z,90.21
2018-03-04T13:11:05.777Z,89.81
2018-03-04T13:13:33.245Z,89.58
2018-03-04T13:16:00.693Z,88.83
2018-03-04T13:18:28.350Z,89.20
2018-03-04T13:20:55.806Z,88.70
2018-03-04T13:23:23.266Z,88.20
2018-03-04T13:25:50.737Z,87.96
2018-03-04T13:28:18.183Z,87.33
2018-03-04T13:30:45.994Z,85.86
2018-03-04T13:33:13.489Z,85.56
2018-03-04T13:35:40.932Z,86.16
2018-03-04T13:38:08.420Z,86.64
2018-03-04T13:40:35.899Z,87.07
2018-03-04T13:43:03.425Z,87.16
2018-03-04T13:45:30.878Z,86.10
2018-03-04T13:47:58.325Z,85.34
2018-03-04T13:50:25.793Z,85.32
2018-03-04T13:52:53.241Z,85.06
2018-03-04T13:55:20.732Z,84.77
2018-03-04T13:57:48.179Z,84.22
2018-03-04T14:00:15.634Z,83.54
2018-03-04T14:02:43.112Z,82.87
2018-03-04T14:05:10.606Z,83.50
2018-03-04T14:07:38.105Z,82.71
2018-03-04T14:10:05.660Z,82.94
2018-03-04T14:12:33.111Z,83.89
2018-03-04T14:15:00.591Z,84.24
2018-03-04T14:17:28.046Z,83.69
2018-03-04T14:19:55.551Z,82.93
2018-03-04T14:22:23.005Z,83.23
2018-03-04T14:24:50.489Z,83.73
2018-03-04T14:27:17.982Z,83.51
2018-03-04T14:29:45.430Z,83.53
2018-03-04T14:32:13.026Z,83.98
2018-03-04T14:34:40.485Z,84.27
2018-03-04T14:37:07.934Z,84.77
2018-03-04T14:39:35.406Z,84.55
2018-03-04T14:42:02.881Z,85.02
2018-03-04T14:44:30.687Z,85.72
2018-03-04T14:46:58.145Z,85.26
2018-03-04T14:49:25.620Z,84.28
2018-03-04T14:51:53.117Z,84.12
2018-03-04T14:54:20.569Z,84.50
2018-03-04T14:56:48.062Z,84.74
2018-03-04T14:59:15.552Z,84.14
2018-03-04T15:01:42.997Z,84.96
2018-03-04T15:04:10.491Z,85.08
2018-03-04T15:06:37.945Z,85.83
2018-03-04T15:09:05.668Z,84.85
2018-03-04T15:11:33.145Z,85.38
2018-03-04T15:14:00.594Z,86.46
2018-03-04T15:16:28.093Z,87.02
2018-03-04T15:18:55.553Z,86.99
2018-03-04T15:21:23.062Z,85.48
2018-03-04T15:23:50.534Z,86.60
2018-03-04T15:26:17.992Z,86.41
2018-03-04T15:28:45.463Z,86.54
2018-03-04T15:31:12.912Z,86.47
2018-03-04T15:33:40.394Z,86.59
2018-03-04T15:36:07.861Z,87.01
2018-03-04T15:38:35.310Z,86.43
2018-03-04T15:41:02.847Z,86.70
2018-03-04T15:43:30.303Z,86.95
2018-03-04T15:45:57.933Z,87.32
2018-03-04T15:48:25.434Z,87.25
2018-03-04T15:50:52.886Z,87.16
2018-03-04T15:53:20.361Z,86.48
2018-03-04T15:55:47.863Z,86.64
2018-03-04T15:58:15.588Z,86.86
2018-03-04T16:00:43.044Z,86.60
2018-03-04T16:03:10.678Z,86.09
2018-03-04T16:05:38.159Z,86.54
2018-03-04T16:08:05.609Z,86.82
2018-03-04T16:10:33.199Z,87.54
2018-03-04T16:13:00.654Z,87.50
2018-03-04T16:15:28.118Z,86.95
2018-03-04T16:17:56.391Z,88.02
2018-03-04T16:20:23.853Z,88.51
2018-03-04T16:22:51.718Z,89.35
2018-03-04T16:25:19.203Z,89.36
2018-03-04T16:27:46.669Z,89.76
2018-03-04T16:30:14.149Z,89.97
2018-03-04T16:32:41.610Z,88.82
2018-03-04T16:35:09.470Z,89.19
2018-03-04T16:37:36.952Z,89.01
2018-03-04T16:40:04.423Z,89.34
2018-03-04T16:42:31.923Z,89.50
2018-03-04T16:44:59.815Z,89.81
2018-03-04T16:47:27.293Z,89.93
2018-03-04T16:49:54.752Z,89.26
2018-03-04T16:52:22.399Z,89.01
2018-03-04T16:54:49.886Z,89.56
2018-03-04T16:57:17.370Z,89.57
2018-03-04T16:59:45.049Z,90.06
2018-03-04T17:02:12.514Z,90.00
2018-03-04T17:04:39.980Z,90.01
2018-03-04T17:07:07.469Z,90.31
2018-03-04T17:09:34.925Z,90.74
2018-03-04T17:12:02.751Z,90.12
2018-03-04T17:14:30.202Z,89.75
2018-03-04T17:16:57.657Z,90.69
2018-03-04T17:19:25.154Z,90.39
2018-03-04T17:21:52.619Z,90.28
2018-03-04T17:24:20.107Z,90.84
2018-03-04T17:26:47.583Z,90.02
2018-03-04T17:29:15.042Z,89.92
2018-03-04T17:31:42.523Z,90.56
2018-03-04T17:34:09.973Z,90.09
2018-03-04T17:36:37.761Z,90.45
2018-03-04T17:39:05.237Z,90.44
2018-03-04T17:41:32.693Z,91.16
2018-03-04T17:44:00.195Z,90.83
2018-03-04T17:46:27.649Z,90.78
2018-03-04T17:48:55.151Z,90.61
2018-03-04T17:51:22.607Z,90.37
2018-03-04T17:53:50.080Z,90.11
2018-03-04T17:56:17.566Z,90.18
2018-03-04T17:58:45.025Z,90.98
2018-03-04T18:01:12.533Z,90.90
2018-03-04T18:03:39.989Z,91.35
2018-03-04T18:06:07.464Z,92.49
2018-03-04T18:08:34.956Z,92.67
2018-03-04T18:11:02.405Z,93.12
2018-03-04T18:13:29.994Z,92.84
2018-03-04T18:15:57.458Z,92.56
2018-03-04T18:18:24.917Z,93.21
2018-03-04T18:20:52.422Z,93.38
2018-03-04T18:23:19.890Z,94.09
2018-03-04T18:25:47.546Z,93.91
2018-03-04T18:28:15.001Z,93.09
2018-03-04T18:30:42.466Z,92.51
2018-03-04T18:33:09.943Z,92.07
2018-03-04T18:35:37.405Z,91.66
2018-03-04T18:38:04.889Z,91.87
2018-03-04T18:40:32.361Z,92.00
2018-03-04T18:42:59.835Z,91.83
2018-03-04T18:45:27.318Z,92.84
2018-03-04T18:47:54.784Z,93.04
2018-03-04T18:50:22.569Z,93.97
2018-03-04T18:52:50.221Z,93.78
2018-03-04T18:55:17.694Z,93.33
2018-03-04T18:57:45.145Z,92.89
2018-03-04T19:00:12.838Z,93.55
2018-03-04T19:02:40.298Z,93.84
2018-03-04T19:05:07.753Z,94.68
2018-03-04T19:07:35.243Z,93.77
2018-03-04T19:10:02.743Z,93.17
2018-03-04T19:12:30.597Z,94.05
2018-03-04T19:14:58.053Z,93.38
2018-03-04T19:17:25.510Z,92.88
2018-03-04T19:19:52.989Z,92.41
2018-03-04T19:22:20.482Z,92.78
2018-03-04T19:24:48.154Z,92.08
2018-03-04T19:27:15.614Z,92.11
2018-03-04T19:29:43.954Z,91.53
2018-03-04T19:32:11.441Z,91.56
2018-03-04T19:34:39.720Z,91.18
2018-03-04T19:37:07.343Z,90.78
2018-03-04T19:39:34.817Z,90.67
2018-03-04T19:42:02.266Z,91.52
2018-03-04T19:44:29.748Z,91.63
2018-03-04T19:46:58.197Z,91.29
2018-03-04T19:49:25.690Z,91.32
2018-03-04T19:51:53.165Z,91.46
2018-03-04T19:54:20.617Z,92.11
2018-03-04T19:56:48.102Z,91.52
2018-03-04T19:59:15.559Z,93.26
2018-03-04T20:01:43.062Z,92.86
2018-03-04T20:04:10.543Z,92.92
2018-03-04T20:06:38.002Z,94.50
2018-03-04T20:09:06.329Z,94.92
2018-03-04T20:11:33.948Z,95.15
2018-03-04T20:14:01.561Z,94.41
2018-03-04T20:16:29.009Z,94.11
2018-03-04T20:18:56.477Z,95.54
2018-03-04T20:21:23.950Z,96.18
2018-03-04T20:23:51.430Z,96.23
2018-03-04T20:26:19.096Z,96.03
2018-03-04T20:28:46.558Z,96.74
2018-03-04T20:31:14.033Z,97.06
2018-03-04T20:33:41.528Z,97.76
2018-03-04T20:36:08.988Z,97.73
2018-03-04T20:38:36.981Z,97.57
2018-03-04T20:41:04.448Z,96.95
2018-03-04T20:43:31.900Z,97.52
2018-03-04T20:45:59.365Z,98.10
2018-03-04T20:48:26.830Z,98.57
2018-03-04T20:50:54.498Z,98.35
2018-03-04T20:53:21.947Z,98.36
2018-03-04T20:55:49.402Z,98.40
2018-03-04T20:58:16.879Z,98.51
2018-03-04T21:00:44.332Z,98.64
2018-03-04T21:03:11.826Z,97.35
2018-03-04T21:05:39.300Z,96.82
2018-03-04T21:08:06.750Z,97.15
2018-03-04T21:10:34.249Z,96.51
2018-03-04T21:13:01.701Z,96.68
2018-03-04T21:15:29.191Z,96.34
2018-03-04T21:17:56.641Z,96.16
2018-03-04T21:20:24.094Z,96.27
2018-03-04T21:22:51.574Z,95.96
2018-03-04T21:25:19.020Z,97.24
2018-03-04T21:27:46.525Z,97.60
2018-03-04T21:30:13.994Z,97.92
2018-03-04T21:32:41.590Z,98.45
2018-03-04T21:35:09.041Z,98.93
2018-03-04T21:37:36.494Z,99.11
2018-03-04T21:40:03.962Z,97.82
2018-03-04T21:42:31.424Z,97.09
2018-03-04T21:44:59.138Z,98.32
2018-03-04T21:47:26.637Z,98.94
2018-03-04T21:49:54.115Z,99.04
2018-03-04T21:52:21.587Z,98.65
2018-03-04T21:54:49.043Z,97.22
2018-03-04T21:57:16.518Z,96.90
2018-03-04T21:59:43.982Z,97.18
2018-03-04T22:02:11.464Z,97.31
2018-03-04T22:04:38.951Z,96.28
2018-03-04T22:07:06.406Z,94.81
2018-03-04T22:09:34.242Z,95.12
2018-03-04T22:12:01.690Z,95.93
2018-03-04T22:14:29.149Z,96.79
2018-03-04T22:16:56.629Z,96.91
2018-03-04T22:19:24.082Z,97.37
2018-03-04T22:21:51.569Z,98.21
2018-03-04T22:24:19.017Z,98.09
2018-03-04T22:26:46.492Z,97.61
2018-03-04T22:29:13.983Z,97.43
2018-03-04T22:31:41.429Z,97.01
2018-03-04T22:34:08.918Z,97.36
2018-03-04T22:36:36.377Z,97.18
2018-03-04T22:39:03.824Z,97.04
2018-03-04T22:41:31.298Z,96.98
2018-03-04T22:43:58.773Z,96.93
2018-03-04T22:46:26.265Z,97.90
2018-03-04T22:48:53.713Z,98.94
2018-03-04T22:51:21.162Z,99.37
2018-03-04T22:53:48.646Z,99.55
2018-03-04T22:56:16.097Z,100.00
2018-03-04T22:58:43.593Z,99.96
2018-03-04T23:01:11.041Z,99.60
2018-03-04T23:03:38.481Z,99.08
2018-03-04T23:06:05.972Z,99.14
2018-03-04T23:08:33.422Z,99.10
2018-03-04T23:11:01.081Z,98.35
2018-03-04T23:13:28.529Z,97.34
2018-03-04T23:15:55.977Z,96.36
2018-03-04T23:18:23.453Z,95.83
2018-03-04T23:20:50.910Z,96.30
2018-03-04T23:23:18.394Z,96.13
2018-03-04T23:25:45.861Z,96.42
2018-03-04T23:28:13.338Z,95.99
2018-03-04T23:30:40.821Z,96.49
2018-03-04T23:33:08.269Z,95.02
2018-03-04T23:35:35.994Z,94.54
2018-03-04T23:38:03.449Z,95.28
2018-03-04T23:40:30.899Z,95.65
2018-03-04T23:42:58.369Z,95.01
2018-03-04T23:45:25.837Z,95.06
2018-03-04T23:47:53.630Z,94.90
2018-03-04T23:50:21.078Z,95.20
2018-03-04T23:52:48.533Z,96.49
2018-03-04T23:55:16.024Z,95.20
2018-03-04T23:57:43.491Z,95.15
